Time;durP1;ratioP1;P1;durP2;ratioP2;P2;SDS_P1;SDS_P2;PMS_P1;PMS_P2;Temp;Humidity;BMP_temperature;BMP_pressure;BME280_temperature;BME280_humidity;BME280_pressure;Samples;Min_cycle;Max_cycle;Signal;HPM_P1;HPM_P2
2022/03/04 00:00:22;;;;;;;139.60;50.78;;;;;;;;;;4770842;30;20376;-78
2022/03/04 00:03:09;;;;;;;153.85;54.10;;;;;;;;;;4775755;30;20051;-78
2022/03/04 00:05:55;;;;;;;140.57;49.75;;;;;;;;;;4762832;30;20055;-79
2022/03/04 00:08:41;;;;;;;133.05;48.15;;;;;;;;;;4775689;30;20048;-78
2022/03/04 00:11:27;;;;;;;148.13;51.15;;;;;;;;;;4765602;30;20094;-79
2022/03/04 00:14:13;;;;;;;113.15;41.83;;;;;;;;;;4777217;30;20052;-80
2022/03/04 00:16:58;;;;;;;400.90;143.52;;;;;;;;;;4788080;30;20051;-81
2022/03/04 00:19:44;;;;;;;374.10;132.02;;;;;;;;;;4797052;30;20047;-78
2022/03/04 00:22:29;;;;;;;199.88;75.32;;;;;;;;;;4781155;30;20047;-79
2022/03/04 00:25:15;;;;;;;195.68;74.30;;;;;;;;;;4779025;30;20383;-79
2022/03/04 00:28:02;;;;;;;396.83;140.38;;;;;;;;;;4778078;30;20055;-77
2022/03/04 00:30:47;;;;;;;299.92;109.25;;;;;;;;;;4777526;30;20055;-80
2022/03/04 00:33:33;;;;;;;198.32;83.28;;;;;;;;;;4778943;30;20055;-77
2022/03/04 00:36:22;;;;;;;210.70;85.45;;;;;;;;;;4779313;30;20047;-77
2022/03/04 00:39:16;;;;;;;256.35;104.78;;;;;;;;;;4778885;30;20063;-79
2022/03/04 00:42:02;;;;;;;236.77;90.03;;;;;;;;;;4761133;30;20380;-79
2022/03/04 00:44:47;;;;;;;200.95;76.22;;;;;;;;;;4779582;30;20051;-79
2022/03/04 00:47:32;;;;;;;105.68;39.85;;;;;;;;;;4779190;30;20043;-77
2022/03/04 00:50:17;;;;;;;124.70;47.83;;;;;;;;;;4764692;30;20056;-80
2022/03/04 00:53:03;;;;;;;126.13;50.25;;;;;;;;;;4771807;30;20044;-80
2022/03/04 00:55:49;;;;;;;125.88;52.33;;;;;;;;;;4772072;30;20059;-75
2022/03/04 00:58:53;;;;;;;149.43;52.13;;;;;;;;;;4777361;30;20490;-78
2022/03/04 01:01:42;;;;;;;91.43;33.75;;;;;;;;;;4777034;30;20051;-78
2022/03/04 01:04:32;;;;;;;105.20;39.28;;;;;;;;;;4779991;30;20048;-79
2022/03/04 01:07:17;;;;;;;81.63;33.67;;;;;;;;;;4777195;30;20467;-77
2022/03/04 01:10:04;;;;;;;69.03;30.55;;;;;;;;;;4771390;30;20051;-78
2022/03/04 01:12:50;;;;;;;26.25;13.15;;;;;;;;;;4776844;30;20047;-77
2022/03/04 01:15:35;;;;;;;86.22;34.05;;;;;;;;;;4776574;30;20047;-79
2022/03/04 01:18:21;;;;;;;73.03;30.80;;;;;;;;;;4775883;30;20048;-80
2022/03/04 01:21:06;;;;;;;75.35;28.65;;;;;;;;;;4776670;30;20051;-79
2022/03/04 01:23:53;;;;;;;93.90;34.28;;;;;;;;;;4776343;30;20052;-78
2022/03/04 01:26:39;;;;;;;87.20;32.17;;;;;;;;;;4776458;30;20391;-80
2022/03/04 01:29:24;;;;;;;85.22;31.05;;;;;;;;;;4776689;30;20055;-79
2022/03/04 01:32:10;;;;;;;87.90;31.33;;;;;;;;;;4776478;30;20483;-79
2022/03/04 01:34:56;;;;;;;87.43;29.42;;;;;;;;;;4776218;30;20055;-79
2022/03/04 01:37:41;;;;;;;78.60;29.45;;;;;;;;;;4776223;30;20047;-79
2022/03/04 01:40:27;;;;;;;84.07;31.67;;;;;;;;;;4776820;30;20064;-77
2022/03/04 01:43:13;;;;;;;53.60;23.80;;;;;;;;;;4763677;30;20052;-78
2022/03/04 01:46:11;;;;;;;46.53;21.88;;;;;;;;;;4770498;30;20048;-79
2022/03/04 01:48:56;;;;;;;53.53;24.15;;;;;;;;;;4776124;30;20419;-77
2022/03/04 01:51:45;;;;;;;52.33;23.75;;;;;;;;;;4772038;30;20056;-78
2022/03/04 01:54:34;;;;;;;48.70;22.05;;;;;;;;;;4778643;30;20056;-77
2022/03/04 01:57:20;;;;;;;38.28;19.83;;;;;;;;;;4776502;30;20047;-80
2022/03/04 02:00:08;;;;;;;42.03;19.52;;;;;;;;;;4776291;30;20048;-79
2022/03/04 02:02:59;;;;;;;34.10;16.40;;;;;;;;;;4769867;30;20044;-80
2022/03/04 02:05:45;;;;;;;34.70;15.93;;;;;;;;;;4775811;30;20051;-81
2022/03/04 02:08:30;;;;;;;26.08;12.68;;;;;;;;;;4775870;30;20059;-80
2022/03/04 02:11:16;;;;;;;33.15;15.60;;;;;;;;;;4775795;30;20455;-81
2022/03/04 02:14:02;;;;;;;37.13;19.55;;;;;;;;;;4775665;30;20052;-79
2022/03/04 02:16:52;;;;;;;83.30;36.38;;;;;;;;;;4775707;30;20052;-79
2022/03/04 02:19:37;;;;;;;102.05;41.05;;;;;;;;;;4775713;30;20043;-80
2022/03/04 02:22:22;;;;;;;114.55;42.55;;;;;;;;;;4775887;30;20052;-80
2022/03/04 02:25:09;;;;;;;98.68;37.88;;;;;;;;;;4775450;30;20059;-79
2022/03/04 02:27:55;;;;;;;85.53;34.72;;;;;;;;;;4763442;30;20044;-79
2022/03/04 02:30:40;;;;;;;93.13;35.33;;;;;;;;;;4778756;30;20059;-80
2022/03/04 02:33:26;;;;;;;84.10;34.05;;;;;;;;;;4785974;30;20047;-79
2022/03/04 02:36:11;;;;;;;79.40;31.73;;;;;;;;;;4800601;29;20040;-80
2022/03/04 02:38:57;;;;;;;82.95;32.88;;;;;;;;;;4780480;30;20047;-79
2022/03/04 02:41:42;;;;;;;79.90;33.70;;;;;;;;;;4779458;30;20505;-79
2022/03/04 02:44:28;;;;;;;78.75;33.25;;;;;;;;;;4784856;30;20044;-80
2022/03/04 02:47:14;;;;;;;78.88;33.63;;;;;;;;;;4779598;30;20051;-80
2022/03/04 02:49:59;;;;;;;78.97;32.25;;;;;;;;;;4779143;30;20491;-80
2022/03/04 02:52:45;;;;;;;70.50;31.40;;;;;;;;;;4778872;30;20424;-82
2022/03/04 02:55:30;;;;;;;68.18;30.15;;;;;;;;;;4779675;30;20064;-80
2022/03/04 02:58:16;;;;;;;60.63;28.23;;;;;;;;;;4779083;30;20395;-79
2022/03/04 03:01:02;;;;;;;56.65;27.20;;;;;;;;;;4779508;30;20056;-79
2022/03/04 03:03:47;;;;;;;70.18;27.33;;;;;;;;;;4778839;30;20059;-79
2022/03/04 03:06:33;;;;;;;52.90;23.55;;;;;;;;;;4778874;30;20498;-79
2022/03/04 03:09:18;;;;;;;45.88;18.98;;;;;;;;;;4779224;30;20044;-79
2022/03/04 03:12:05;;;;;;;37.20;17.60;;;;;;;;;;4778651;30;20051;-79
2022/03/04 03:14:51;;;;;;;38.22;16.13;;;;;;;;;;4778873;30;20040;-79
2022/03/04 03:17:37;;;;;;;38.65;16.13;;;;;;;;;;4778542;30;20487;-79
2022/03/04 03:20:23;;;;;;;37.55;16.75;;;;;;;;;;4778470;30;20055;-80
2022/03/04 03:23:09;;;;;;;35.58;15.98;;;;;;;;;;4778905;30;20047;-79
2022/03/04 03:25:53;;;;;;;33.67;16.58;;;;;;;;;;4778600;30;20047;-79
2022/03/04 03:28:48;;;;;;;40.53;21.08;;;;;;;;;;4778636;30;20059;-80
2022/03/04 03:31:33;;;;;;;45.33;21.77;;;;;;;;;;4770682;30;20052;-80
2022/03/04 03:34:19;;;;;;;48.03;23.35;;;;;;;;;;4778533;30;20051;-80
2022/03/04 03:37:05;;;;;;;51.55;24.10;;;;;;;;;;4778170;30;20491;-80
2022/03/04 03:39:51;;;;;;;72.68;29.42;;;;;;;;;;4778501;30;20047;-80
2022/03/04 03:42:37;;;;;;;62.95;27.00;;;;;;;;;;4777570;30;20040;-81
2022/03/04 03:45:24;;;;;;;63.40;28.48;;;;;;;;;;4778352;30;20059;-79
2022/03/04 03:48:10;;;;;;;39.97;20.95;;;;;;;;;;4778165;30;20040;-79
2022/03/04 03:50:55;;;;;;;42.95;19.00;;;;;;;;;;4775675;30;20060;-79
2022/03/04 03:53:41;;;;;;;48.10;17.85;;;;;;;;;;4778127;30;20051;-80
2022/03/04 03:56:26;;;;;;;53.40;20.77;;;;;;;;;;4778481;30;20048;-80
2022/03/04 03:59:12;;;;;;;61.28;23.00;;;;;;;;;;4778311;30;20156;-80
2022/03/04 04:01:58;;;;;;;34.70;17.02;;;;;;;;;;4777898;30;20052;-80
2022/03/04 04:04:44;;;;;;;27.65;13.43;;;;;;;;;;4778116;30;20051;-80
2022/03/04 04:07:29;;;;;;;26.75;13.32;;;;;;;;;;4778077;30;20052;-80
2022/03/04 04:10:15;;;;;;;22.10;10.45;;;;;;;;;;4778200;30;20052;-80
2022/03/04 04:13:01;;;;;;;21.02;9.18;;;;;;;;;;4777998;30;20060;-79
2022/03/04 04:15:46;;;;;;;20.95;10.55;;;;;;;;;;4778086;30;20052;-80
2022/03/04 04:18:32;;;;;;;26.42;12.85;;;;;;;;;;4777884;30;20044;-80
2022/03/04 04:21:18;;;;;;;30.67;14.48;;;;;;;;;;4784420;30;20051;-78
2022/03/04 04:24:04;;;;;;;47.13;23.08;;;;;;;;;;4778082;30;20067;-80
2022/03/04 04:26:50;;;;;;;44.88;20.48;;;;;;;;;;4777868;30;20047;-79
2022/03/04 04:29:35;;;;;;;43.22;20.13;;;;;;;;;;4778687;30;20043;-79
2022/03/04 04:32:22;;;;;;;56.88;22.00;;;;;;;;;;4777666;30;20052;-80
2022/03/04 04:35:09;;;;;;;53.65;24.77;;;;;;;;;;4777210;30;20418;-80
2022/03/04 04:37:54;;;;;;;67.03;28.38;;;;;;;;;;4777166;30;20047;-80
2022/03/04 04:40:40;;;;;;;65.45;28.27;;;;;;;;;;4777270;30;20499;-81
2022/03/04 04:43:25;;;;;;;64.30;28.02;;;;;;;;;;4776930;30;20052;-79
2022/03/04 04:46:11;;;;;;;70.72;28.85;;;;;;;;;;4777112;30;20055;-80
2022/03/04 04:48:57;;;;;;;68.47;29.83;;;;;;;;;;4798492;29;20040;-79
2022/03/04 04:51:43;;;;;;;50.78;24.52;;;;;;;;;;4779621;30;20059;-79
2022/03/04 04:54:28;;;;;;;58.35;27.35;;;;;;;;;;4777392;30;20043;-80
2022/03/04 04:57:14;;;;;;;67.78;30.48;;;;;;;;;;4776617;30;20055;-80
2022/03/04 05:00:00;;;;;;;71.72;28.70;;;;;;;;;;4777066;30;20051;-79
2022/03/04 05:02:45;;;;;;;61.60;24.70;;;;;;;;;;4776926;30;20059;-82
2022/03/04 05:05:31;;;;;;;47.08;19.52;;;;;;;;;;4776536;30;20055;-80
2022/03/04 05:08:17;;;;;;;43.15;20.50;;;;;;;;;;4778669;30;20056;-80
2022/03/04 05:11:03;;;;;;;53.03;23.58;;;;;;;;;;4764749;30;20055;-79
2022/03/04 05:13:48;;;;;;;58.50;24.05;;;;;;;;;;4776604;30;20490;-79
2022/03/04 05:16:34;;;;;;;77.00;27.45;;;;;;;;;;4771663;30;20052;-80
2022/03/04 05:19:20;;;;;;;77.30;28.88;;;;;;;;;;4771451;30;20051;-80
2022/03/04 05:22:05;;;;;;;99.10;35.38;;;;;;;;;;4771288;30;20051;-79
2022/03/04 05:24:51;;;;;;;135.48;42.15;;;;;;;;;;4771646;30;20056;-80
2022/03/04 05:27:37;;;;;;;91.30;36.40;;;;;;;;;;4771159;30;20048;-80
2022/03/04 05:30:23;;;;;;;90.95;34.70;;;;;;;;;;4771318;30;20063;-80
2022/03/04 05:33:08;;;;;;;99.15;37.10;;;;;;;;;;4776110;30;20044;-79
2022/03/04 05:35:53;;;;;;;102.85;41.13;;;;;;;;;;4771230;30;20056;-80
2022/03/04 05:38:39;;;;;;;137.90;50.88;;;;;;;;;;4771031;30;20519;-80
2022/03/04 05:41:24;;;;;;;125.43;51.60;;;;;;;;;;4771048;30;20051;-80
2022/03/04 05:44:10;;;;;;;154.65;59.97;;;;;;;;;;4771257;30;20059;-80
2022/03/04 05:46:56;;;;;;;168.45;70.60;;;;;;;;;;4771070;30;20495;-80
2022/03/04 05:49:42;;;;;;;320.92;148.25;;;;;;;;;;4771265;30;20498;-80
2022/03/04 05:52:27;;;;;;;148.13;59.53;;;;;;;;;;4775906;30;20055;-80
2022/03/04 05:55:12;;;;;;;80.78;37.58;;;;;;;;;;4783791;30;20048;-83
2022/03/04 05:57:58;;;;;;;130.85;50.00;;;;;;;;;;4776280;30;20055;-78
2022/03/04 06:00:43;;;;;;;163.23;65.28;;;;;;;;;;4775620;30;20427;-78
2022/03/04 06:03:28;;;;;;;183.60;71.65;;;;;;;;;;4775778;30;20052;-78
2022/03/04 06:06:14;;;;;;;255.25;104.45;;;;;;;;;;4770444;30;20051;-78
2022/03/04 06:08:59;;;;;;;217.93;95.47;;;;;;;;;;4770985;30;20047;-79
2022/03/04 06:11:45;;;;;;;145.30;57.72;;;;;;;;;;4770925;30;20052;-79
2022/03/04 06:14:31;;;;;;;155.45;62.58;;;;;;;;;;4776593;30;20059;-77
2022/03/04 06:17:17;;;;;;;170.43;67.65;;;;;;;;;;4770545;30;20407;-78
2022/03/04 06:20:02;;;;;;;159.50;63.50;;;;;;;;;;4770692;30;20043;-80
2022/03/04 06:22:47;;;;;;;173.27;74.10;;;;;;;;;;4770816;30;20047;-79
2022/03/04 06:25:33;;;;;;;151.07;64.28;;;;;;;;;;4770480;30;20059;-78
2022/03/04 06:28:18;;;;;;;120.32;52.03;;;;;;;;;;4770535;30;20043;-79
2022/03/04 06:31:04;;;;;;;105.53;48.28;;;;;;;;;;4776574;30;20081;-77
2022/03/04 06:33:49;;;;;;;111.70;43.88;;;;;;;;;;4776535;30;20051;-78
2022/03/04 06:36:35;;;;;;;114.88;46.95;;;;;;;;;;4776143;30;20055;-78
2022/03/04 06:39:21;;;;;;;123.40;50.60;;;;;;;;;;4770647;30;20043;-78
2022/03/04 06:42:06;;;;;;;130.85;55.83;;;;;;;;;;4771096;30;20047;-79
2022/03/04 06:44:52;;;;;;;143.95;58.80;;;;;;;;;;4770949;30;20047;-78
2022/03/04 06:47:37;;;;;;;112.65;48.40;;;;;;;;;;4770395;30;20048;-77
2022/03/04 06:50:26;;;;;;;169.52;73.10;;;;;;;;;;4770324;30;20060;-79
2022/03/04 06:53:10;;;;;;;131.40;56.10;;;;;;;;;;4775599;30;20056;-79
2022/03/04 06:55:56;;;;;;;70.82;33.65;;;;;;;;;;4770464;30;20499;-79
2022/03/04 06:58:42;;;;;;;42.33;20.58;;;;;;;;;;4770018;30;20055;-79
2022/03/04 07:01:29;;;;;;;53.03;23.10;;;;;;;;;;4781428;30;20044;-78
2022/03/04 07:04:15;;;;;;;70.20;32.63;;;;;;;;;;4789325;30;20051;-80
2022/03/04 07:07:01;;;;;;;105.63;42.88;;;;;;;;;;4771324;30;20407;-78
2022/03/04 07:09:46;;;;;;;64.28;30.08;;;;;;;;;;4770593;30;20055;-78
2022/03/04 07:12:32;;;;;;;53.10;26.52;;;;;;;;;;4770334;30;20047;-78
2022/03/04 07:15:19;;;;;;;65.47;29.30;;;;;;;;;;4771507;30;20044;-77
2022/03/04 07:18:04;;;;;;;74.45;32.28;;;;;;;;;;4773242;30;20052;-77
2022/03/04 07:20:50;;;;;;;63.30;28.83;;;;;;;;;;4773559;30;20052;-78
2022/03/04 07:23:35;;;;;;;55.10;24.27;;;;;;;;;;4779566;30;20052;-78
2022/03/04 07:26:21;;;;;;;55.92;27.20;;;;;;;;;;4773338;30;20051;-79
2022/03/04 07:29:06;;;;;;;48.30;23.08;;;;;;;;;;4780666;30;20048;-79
2022/03/04 07:31:55;;;;;;;31.80;16.83;;;;;;;;;;4759963;30;20052;-79
2022/03/04 07:34:41;;;;;;;24.27;12.68;;;;;;;;;;4773550;30;20052;-79
2022/03/04 07:37:26;;;;;;;21.58;11.88;;;;;;;;;;4773233;30;20403;-79
2022/03/04 07:40:14;;;;;;;24.35;11.77;;;;;;;;;;4773324;30;20059;-79
2022/03/04 07:43:01;;;;;;;44.58;23.45;;;;;;;;;;4773193;30;20491;-78
2022/03/04 07:45:48;;;;;;;42.45;21.67;;;;;;;;;;4773051;30;20052;-79
2022/03/04 07:48:33;;;;;;;64.00;34.47;;;;;;;;;;4773196;30;20451;-79
2022/03/04 07:51:19;;;;;;;452.63;296.98;;;;;;;;;;4772921;30;20055;-80
2022/03/04 07:54:04;;;;;;;29.20;15.27;;;;;;;;;;4772904;30;20059;-79
2022/03/04 07:56:52;;;;;;;125.03;76.22;;;;;;;;;;4772761;30;20056;-78
2022/03/04 07:59:38;;;;;;;15.35;7.43;;;;;;;;;;4772658;30;20411;-77
2022/03/04 08:02:23;;;;;;;58.63;21.58;;;;;;;;;;4759721;30;20052;-79
2022/03/04 08:05:10;;;;;;;47.20;22.90;;;;;;;;;;4772804;30;20048;-79
2022/03/04 08:07:55;;;;;;;11.90;6.28;;;;;;;;;;4778747;30;20051;-77
2022/03/04 08:10:40;;;;;;;28.90;14.02;;;;;;;;;;4772920;30;20091;-78
2022/03/04 08:13:26;;;;;;;23.88;12.90;;;;;;;;;;4773326;30;20047;-79
2022/03/04 08:16:12;;;;;;;28.30;13.52;;;;;;;;;;4775423;30;20051;-79
2022/03/04 08:18:58;;;;;;;54.28;29.33;;;;;;;;;;4772528;30;20040;-80
2022/03/04 08:21:45;;;;;;;33.28;16.10;;;;;;;;;;4772627;30;20044;-79
2022/03/04 08:24:30;;;;;;;47.90;24.77;;;;;;;;;;4772413;30;20048;-79
2022/03/04 08:27:16;;;;;;;53.40;26.60;;;;;;;;;;4771758;30;20048;-80
2022/03/04 08:30:01;;;;;;;52.50;24.27;;;;;;;;;;4772422;30;20059;-78
2022/03/04 08:32:47;;;;;;;55.47;25.05;;;;;;;;;;4772995;30;20059;-78
2022/03/04 08:35:32;;;;;;;44.10;24.75;;;;;;;;;;4778304;30;20052;-79
2022/03/04 08:38:18;;;;;;;64.25;25.15;;;;;;;;;;4777771;30;20491;-79
2022/03/04 08:41:04;;;;;;;46.78;24.33;;;;;;;;;;4777948;30;20440;-80
2022/03/04 08:43:51;;;;;;;50.28;23.60;;;;;;;;;;4772010;30;20402;-79
2022/03/04 08:46:36;;;;;;;47.80;24.40;;;;;;;;;;4764792;30;20047;-77
2022/03/04 08:49:21;;;;;;;41.47;22.55;;;;;;;;;;4777423;30;20043;-79
2022/03/04 08:52:07;;;;;;;45.35;23.85;;;;;;;;;;4771216;30;20055;-79
2022/03/04 08:54:53;;;;;;;53.03;12.32;;;;;;;;;;4772159;30;20063;-78
2022/03/04 08:57:45;;;;;;;46.35;21.30;;;;;;;;;;4772441;30;20048;-78
2022/03/04 09:00:32;;;;;;;46.10;22.85;;;;;;;;;;4774603;30;20055;-80
2022/03/04 09:03:18;;;;;;;46.40;22.73;;;;;;;;;;4772278;30;20047;-78
2022/03/04 09:06:04;;;;;;;40.38;21.90;;;;;;;;;;4772860;30;20048;-81
2022/03/04 09:08:50;;;;;;;47.53;21.45;;;;;;;;;;4772099;30;20044;-76
2022/03/04 09:11:36;;;;;;;40.05;22.38;;;;;;;;;;4779121;30;20048;-80
2022/03/04 09:14:23;;;;;;;42.08;20.75;;;;;;;;;;4771669;30;20052;-82
2022/03/04 09:17:08;;;;;;;25.77;14.50;;;;;;;;;;4778144;29;20040;-82
2022/03/04 09:19:54;;;;;;;41.20;20.58;;;;;;;;;;4783862;29;20039;-80
2022/03/04 09:22:39;;;;;;;38.55;20.92;;;;;;;;;;4773402;30;20055;-80
2022/03/04 09:25:27;;;;;;;41.45;19.38;;;;;;;;;;4774017;30;20052;-81
2022/03/04 09:28:13;;;;;;;44.35;19.30;;;;;;;;;;4788231;30;20052;-82
2022/03/04 09:30:58;;;;;;;42.50;22.42;;;;;;;;;;4787132;30;20024;-82
2022/03/04 09:33:44;;;;;;;33.17;19.02;;;;;;;;;;4781794;30;20060;-82
2022/03/04 09:36:29;;;;;;;53.17;25.52;;;;;;;;;;4773039;30;20403;-77
2022/03/04 09:39:15;;;;;;;51.40;25.13;;;;;;;;;;4770730;30;20051;-81
2022/03/04 09:42:00;;;;;;;41.58;21.38;;;;;;;;;;4771626;30;20077;-80
2022/03/04 09:44:46;;;;;;;47.47;24.42;;;;;;;;;;4771119;30;20056;-80
2022/03/04 09:47:32;;;;;;;36.67;17.27;;;;;;;;;;4774805;30;20047;-80
2022/03/04 09:50:19;;;;;;;37.42;17.73;;;;;;;;;;4771454;30;20487;-80
2022/03/04 09:53:09;;;;;;;26.50;15.00;;;;;;;;;;4771590;30;20043;-80
2022/03/04 09:55:55;;;;;;;40.97;14.80;;;;;;;;;;4771595;30;20059;-80
2022/03/04 09:58:41;;;;;;;44.03;20.13;;;;;;;;;;4771776;30;20499;-81
2022/03/04 10:01:27;;;;;;;28.05;14.07;;;;;;;;;;4775056;30;20081;-81
2022/03/04 10:04:13;;;;;;;15.65;8.00;;;;;;;;;;4772652;30;20146;-80
2022/03/04 10:07:10;;;;;;;29.65;12.90;;;;;;;;;;4781272;30;20055;-78
2022/03/04 10:09:57;;;;;;;26.65;12.55;;;;;;;;;;4772140;30;20056;-79
2022/03/04 10:12:57;;;;;;;38.42;14.77;;;;;;;;;;4776982;30;20048;-80
2022/03/04 10:15:55;;;;;;;29.05;14.40;;;;;;;;;;4777418;30;20052;-81
2022/03/04 10:18:42;;;;;;;26.70;14.57;;;;;;;;;;4771450;30;20051;-81
2022/03/04 10:22:05;;;;;;;18.15;9.82;;;;;;;;;;4776880;30;20044;-81
2022/03/04 10:25:12;;;;;;;17.92;10.48;;;;;;;;;;4765434;30;20044;-76
2022/03/04 10:28:10;;;;;;;23.02;13.02;;;;;;;;;;4777503;30;20051;-79
2022/03/04 10:30:57;;;;;;;24.50;12.32;;;;;;;;;;4772319;30;20051;-80
2022/03/04 10:33:43;;;;;;;26.48;13.68;;;;;;;;;;4786466;30;20051;-80
2022/03/04 10:36:32;;;;;;;26.63;15.40;;;;;;;;;;4781686;30;20055;-80
2022/03/04 10:39:18;;;;;;;24.10;12.55;;;;;;;;;;4777519;30;20051;-79
2022/03/04 10:42:04;;;;;;;20.95;10.88;;;;;;;;;;4771516;30;20055;-81
2022/03/04 10:45:03;;;;;;;23.35;12.32;;;;;;;;;;4771087;30;20395;-80
2022/03/04 10:48:10;;;;;;;23.85;12.20;;;;;;;;;;4773482;30;20048;-79
2022/03/04 10:51:09;;;;;;;25.25;12.35;;;;;;;;;;4772077;30;20052;-82
2022/03/04 10:54:18;;;;;;;19.27;11.07;;;;;;;;;;4761823;30;20051;-81
2022/03/04 10:57:03;;;;;;;27.02;12.38;;;;;;;;;;4774806;30;20056;-79
2022/03/04 10:59:56;;;;;;;26.67;13.93;;;;;;;;;;4776813;30;20052;-79
2022/03/04 11:02:43;;;;;;;16.60;9.80;;;;;;;;;;4773927;30;20047;-78
2022/03/04 11:05:29;;;;;;;31.00;13.15;;;;;;;;;;4774994;30;20048;-80
2022/03/04 11:08:16;;;;;;;32.40;17.52;;;;;;;;;;4777610;30;20048;-81
2022/03/04 11:11:02;;;;;;;38.63;19.33;;;;;;;;;;4786376;30;20055;-80
2022/03/04 11:13:49;;;;;;;31.73;15.75;;;;;;;;;;4788006;30;20044;-79
2022/03/04 11:16:34;;;;;;;17.75;9.00;;;;;;;;;;4785502;30;20507;-80
2022/03/04 11:19:20;;;;;;;21.00;12.25;;;;;;;;;;4780187;30;20044;-81
2022/03/04 11:22:11;;;;;;;14.20;8.32;;;;;;;;;;4793282;30;20060;-81
2022/03/04 11:25:03;;;;;;;28.85;14.50;;;;;;;;;;4792577;30;20047;-81
2022/03/04 11:27:52;;;;;;;24.88;13.57;;;;;;;;;;4789472;30;20418;-79
2022/03/04 11:30:49;;;;;;;22.35;12.07;;;;;;;;;;4776725;30;20055;-81
2022/03/04 11:33:43;;;;;;;25.98;12.90;;;;;;;;;;4795403;30;20036;-79
2022/03/04 11:36:32;;;;;;;26.25;13.25;;;;;;;;;;4782469;30;20048;-80
2022/03/04 11:39:17;;;;;;;22.70;12.60;;;;;;;;;;4780548;30;20051;-78
2022/03/04 11:42:07;;;;;;;23.00;13.23;;;;;;;;;;4774497;30;20434;-77
2022/03/04 11:44:54;;;;;;;26.95;14.13;;;;;;;;;;4779944;30;20052;-76
2022/03/04 11:47:43;;;;;;;27.17;14.32;;;;;;;;;;4792786;30;20059;-80
2022/03/04 11:50:42;;;;;;;22.20;13.30;;;;;;;;;;4781168;30;20059;-80
2022/03/04 11:53:28;;;;;;;26.15;14.10;;;;;;;;;;4779821;30;20051;-80
2022/03/04 11:56:14;;;;;;;27.50;13.00;;;;;;;;;;4775140;30;20047;-80
2022/03/04 11:59:05;;;;;;;24.45;10.68;;;;;;;;;;4775218;30;20048;-81
2022/03/04 12:01:50;;;;;;;14.85;8.32;;;;;;;;;;4774269;30;20052;-82
2022/03/04 12:04:36;;;;;;;22.63;14.40;;;;;;;;;;4775148;30;20051;-83
2022/03/04 12:07:33;;;;;;;21.60;11.15;;;;;;;;;;4779920;30;20491;-82
2022/03/04 12:10:22;;;;;;;24.85;13.90;;;;;;;;;;4779576;30;20044;-84
2022/03/04 12:13:20;;;;;;;19.20;9.80;;;;;;;;;;4774330;30;20048;-83
2022/03/04 12:16:07;;;;;;;19.95;9.50;;;;;;;;;;4773018;30;20526;-81
2022/03/04 12:18:52;;;;;;;25.25;11.88;;;;;;;;;;4775605;30;20056;-81
2022/03/04 12:21:40;;;;;;;20.75;12.38;;;;;;;;;;4775190;30;20047;-80
2022/03/04 12:24:30;;;;;;;27.00;14.25;;;;;;;;;;4785729;30;20044;-81
2022/03/04 12:27:35;;;;;;;25.65;12.07;;;;;;;;;;4772900;30;20047;-80
2022/03/04 12:30:22;;;;;;;25.45;14.73;;;;;;;;;;4774919;30;20051;-82
2022/03/04 12:33:08;;;;;;;37.08;19.45;;;;;;;;;;4773397;30;20047;-81
2022/03/04 12:35:57;;;;;;;22.58;13.15;;;;;;;;;;4777930;30;20051;-82
2022/03/04 12:38:49;;;;;;;25.48;13.13;;;;;;;;;;4773259;30;20040;-81
2022/03/04 12:41:35;;;;;;;30.65;14.00;;;;;;;;;;4772775;30;20051;-82
2022/03/04 12:44:20;;;;;;;40.58;20.30;;;;;;;;;;4773443;30;20051;-81
2022/03/04 12:47:07;;;;;;;81.88;49.78;;;;;;;;;;4774229;30;20059;-82
2022/03/04 12:49:54;;;;;;;25.67;13.45;;;;;;;;;;4773078;30;20052;-82
2022/03/04 12:52:40;;;;;;;23.15;13.45;;;;;;;;;;4776814;30;20047;-81
2022/03/04 12:55:26;;;;;;;24.20;13.80;;;;;;;;;;4776205;30;20047;-82
2022/03/04 12:58:12;;;;;;;39.70;19.98;;;;;;;;;;4781112;30;20052;-81
2022/03/04 13:00:58;;;;;;;26.20;13.25;;;;;;;;;;4767682;30;20055;-81
2022/03/04 13:03:50;;;;;;;26.35;12.80;;;;;;;;;;4779816;30;20040;-81
2022/03/04 13:06:35;;;;;;;23.13;12.13;;;;;;;;;;4779195;30;20051;-83
2022/03/04 13:09:20;;;;;;;16.63;7.28;;;;;;;;;;4776107;30;20048;-81
2022/03/04 13:12:08;;;;;;;23.58;11.75;;;;;;;;;;4777853;30;20410;-81
2022/03/04 13:15:06;;;;;;;30.83;14.48;;;;;;;;;;4773304;30;20499;-82
2022/03/04 13:17:52;;;;;;;113.40;39.85;;;;;;;;;;4772665;30;20052;-82
2022/03/04 13:20:37;;;;;;;47.70;20.92;;;;;;;;;;4772117;30;20052;-80
2022/03/04 13:23:23;;;;;;;15.45;8.25;;;;;;;;;;4772773;30;20055;-81
2022/03/04 13:26:09;;;;;;;25.02;11.65;;;;;;;;;;4774158;30;20482;-81
2022/03/04 13:28:57;;;;;;;25.20;12.15;;;;;;;;;;4772360;30;20048;-81
2022/03/04 13:31:42;;;;;;;29.48;15.45;;;;;;;;;;4776921;30;20490;-83
2022/03/04 13:34:29;;;;;;;44.13;19.85;;;;;;;;;;4771807;30;20499;-82
2022/03/04 13:37:19;;;;;;;25.77;13.88;;;;;;;;;;4773286;30;20055;-81
2022/03/04 13:40:07;;;;;;;68.25;31.70;;;;;;;;;;4777504;30;20047;-81
2022/03/04 13:42:58;;;;;;;24.23;13.93;;;;;;;;;;4771523;30;20059;-83
2022/03/04 13:45:46;;;;;;;29.73;13.27;;;;;;;;;;4783931;29;20039;-82
2022/03/04 13:48:32;;;;;;;28.05;13.65;;;;;;;;;;4788968;29;20056;-82
2022/03/04 13:51:17;;;;;;;23.92;13.00;;;;;;;;;;4774482;30;20055;-81
2022/03/04 13:54:03;;;;;;;32.58;17.25;;;;;;;;;;4772277;30;20411;-84
2022/03/04 13:56:48;;;;;;;24.60;13.50;;;;;;;;;;4771110;30;20402;-81
2022/03/04 13:59:48;;;;;;;25.70;14.43;;;;;;;;;;4772636;30;20052;-81
2022/03/04 14:02:42;;;;;;;34.30;17.85;;;;;;;;;;4771439;30;20056;-82
2022/03/04 14:05:35;;;;;;;25.40;13.25;;;;;;;;;;4771108;30;20393;-81
2022/03/04 14:08:23;;;;;;;28.88;13.43;;;;;;;;;;4771701;30;20499;-78
2022/03/04 14:11:12;;;;;;;21.25;11.32;;;;;;;;;;4770694;30;20052;-81
2022/03/04 14:13:57;;;;;;;26.83;13.48;;;;;;;;;;4773175;30;20047;-80
2022/03/04 14:16:43;;;;;;;26.65;13.57;;;;;;;;;;4770615;30;20048;-78
2022/03/04 14:19:29;;;;;;;23.02;12.88;;;;;;;;;;4771029;30;20047;-77
2022/03/04 14:22:14;;;;;;;38.08;18.02;;;;;;;;;;4770957;30;20048;-83
2022/03/04 14:25:00;;;;;;;24.17;12.30;;;;;;;;;;4773657;30;20051;-77
2022/03/04 14:27:48;;;;;;;20.38;11.90;;;;;;;;;;4770584;30;20055;-78
2022/03/04 14:30:35;;;;;;;23.77;11.30;;;;;;;;;;4770678;30;20040;-79
2022/03/04 14:33:21;;;;;;;23.77;11.57;;;;;;;;;;4771050;30;20055;-77
2022/03/04 14:36:06;;;;;;;24.92;11.82;;;;;;;;;;4770094;30;20052;-76
2022/03/04 14:38:52;;;;;;;24.55;13.73;;;;;;;;;;4770140;30;20406;-77
2022/03/04 14:41:38;;;;;;;31.20;15.38;;;;;;;;;;4770370;30;20052;-77
2022/03/04 14:44:24;;;;;;;16.80;9.88;;;;;;;;;;4770969;30;20059;-76
2022/03/04 14:47:10;;;;;;;20.48;10.90;;;;;;;;;;4770820;30;20471;-75
2022/03/04 14:49:57;;;;;;;28.17;11.35;;;;;;;;;;4770464;30;20052;-76
2022/03/04 14:52:43;;;;;;;19.85;11.20;;;;;;;;;;4770503;30;20052;-76
2022/03/04 14:55:28;;;;;;;21.85;11.73;;;;;;;;;;4770610;30;20055;-76
2022/03/04 14:58:14;;;;;;;22.10;11.73;;;;;;;;;;4770155;30;20040;-76
2022/03/04 15:00:59;;;;;;;30.83;15.52;;;;;;;;;;4756878;30;20051;-75
2022/03/04 15:03:45;;;;;;;27.70;11.32;;;;;;;;;;4770256;30;20052;-79
2022/03/04 15:06:31;;;;;;;23.88;13.80;;;;;;;;;;4771655;30;20059;-80
2022/03/04 15:09:16;;;;;;;32.08;16.38;;;;;;;;;;4770935;30;20072;-81
2022/03/04 15:12:02;;;;;;;36.28;17.25;;;;;;;;;;4777579;30;20043;-78
2022/03/04 15:14:47;;;;;;;25.38;13.75;;;;;;;;;;4776928;30;20043;-79
2022/03/04 15:17:34;;;;;;;27.17;12.80;;;;;;;;;;4770689;30;20411;-77
2022/03/04 15:20:19;;;;;;;23.80;12.30;;;;;;;;;;4770712;30;20051;-80
2022/03/04 15:23:05;;;;;;;31.85;15.32;;;;;;;;;;4772361;30;20052;-81
2022/03/04 15:25:52;;;;;;;26.95;13.60;;;;;;;;;;4771803;30;20047;-80
2022/03/04 15:28:38;;;;;;;27.98;14.10;;;;;;;;;;4772438;30;20047;-81
2022/03/04 15:31:23;;;;;;;34.58;15.77;;;;;;;;;;4771140;30;20052;-79
2022/03/04 15:34:08;;;;;;;37.38;17.38;;;;;;;;;;4770982;30;20430;-79
2022/03/04 15:36:54;;;;;;;32.13;15.75;;;;;;;;;;4770105;30;20047;-79
2022/03/04 15:39:40;;;;;;;37.70;17.92;;;;;;;;;;4772691;30;20073;-79
2022/03/04 15:42:25;;;;;;;40.10;18.60;;;;;;;;;;4774492;30;20048;-81
2022/03/04 15:45:11;;;;;;;57.38;25.83;;;;;;;;;;4772315;30;20051;-81
2022/03/04 15:47:58;;;;;;;58.85;25.67;;;;;;;;;;4774506;30;20047;-81
2022/03/04 15:50:43;;;;;;;48.42;21.75;;;;;;;;;;4775446;30;20056;-83
2022/03/04 15:53:28;;;;;;;83.85;31.10;;;;;;;;;;4774834;30;20498;-82
2022/03/04 15:56:13;;;;;;;58.75;24.88;;;;;;;;;;4775915;30;20059;-83
2022/03/04 15:58:59;;;;;;;61.67;28.75;;;;;;;;;;4778999;30;20039;-80
2022/03/04 16:01:44;;;;;;;84.95;35.00;;;;;;;;;;4784890;29;20044;-81
2022/03/04 16:04:30;;;;;;;55.97;27.38;;;;;;;;;;4792224;29;20048;-82
2022/03/04 16:07:17;;;;;;;64.25;30.35;;;;;;;;;;4782933;30;20047;-82
2022/03/04 16:10:04;;;;;;;62.70;26.42;;;;;;;;;;4773777;30;20051;-82